createdAt,value
2018-05-09T00:01:47.038Z,5.03
2018-05-09T00:04:15.098Z,4.83
2018-05-09T00:06:43.002Z,5.20
2018-05-09T00:09:11.038Z,5.10
2018-05-09T00:11:39.098Z,5.37
2018-05-09T00:14:06.960Z,5.13
2018-05-09T00:16:34.880Z,5.33
2018-05-09T00:19:02.699Z,4.90
2018-05-09T00:21:30.779Z,5.10
2018-05-09T00:23:59.179Z,5.30
2018-05-09T00:26:27.420Z,5.27
2018-05-09T00:28:55.351Z,4.60
2018-05-09T00:31:23.359Z,5.27
2018-05-09T00:33:51.199Z,4.70
2018-05-09T00:36:19.120Z,5.50
2018-05-09T00:38:46.879Z,5.30
2018-05-09T00:41:14.799Z,4.93
2018-05-09T00:43:42.659Z,5.37
2018-05-09T00:46:11.381Z,4.80
2018-05-09T00:48:39.583Z,5.00
2018-05-09T00:51:07.679Z,5.10
2018-05-09T00:53:35.639Z,5.33
2018-05-09T00:56:03.499Z,5.43
2018-05-09T00:58:31.396Z,5.67
2018-05-09T01:00:59.279Z,5.10
2018-05-09T01:03:27.221Z,5.27
2018-05-09T01:05:55.420Z,5.20
2018-05-09T01:08:23.579Z,5.40
2018-05-09T01:10:51.440Z,5.20
2018-05-09T01:13:19.482Z,5.40
2018-05-09T01:15:47.420Z,4.83
2018-05-09T01:18:15.521Z,4.90
2018-05-09T01:20:43.500Z,5.23
2018-05-09T01:23:11.400Z,4.73
2018-05-09T01:25:39.360Z,4.57
2018-05-09T01:28:07.260Z,4.80
2018-05-09T01:30:36.040Z,4.57
2018-05-09T01:33:04.060Z,5.00
2018-05-09T01:35:32.079Z,5.20
2018-05-09T01:37:59.899Z,5.77
2018-05-09T01:40:27.737Z,5.13
2018-05-09T01:42:56.880Z,5.20
2018-05-09T01:45:24.757Z,4.80
2018-05-09T01:47:52.618Z,5.27
2018-05-09T01:50:20.936Z,5.03
2018-05-09T01:52:48.877Z,5.23
2018-05-09T01:55:16.937Z,4.67
2018-05-09T01:57:45.217Z,5.20
2018-05-09T02:00:12.897Z,4.60
2018-05-09T02:02:41.594Z,5.67
2018-05-09T02:05:09.514Z,5.10
2018-05-09T02:07:38.134Z,5.00
2018-05-09T02:10:06.296Z,5.70
2018-05-09T02:12:34.313Z,5.90
2018-05-09T02:15:02.254Z,5.50
2018-05-09T02:17:30.411Z,5.00
2018-05-09T02:19:58.373Z,5.33
2018-05-09T02:22:26.234Z,5.20
2018-05-09T02:24:54.279Z,5.27
2018-05-09T02:27:22.178Z,5.40
2018-05-09T02:29:50.293Z,5.03
2018-05-09T02:32:18.237Z,5.53
2018-05-09T02:34:46.314Z,5.53
2018-05-09T02:37:14.254Z,5.30
2018-05-09T02:39:42.535Z,5.43
2018-05-09T02:42:10.376Z,5.60
2018-05-09T02:44:38.938Z,5.60
2018-05-09T02:47:06.838Z,5.37
2018-05-09T02:49:34.975Z,4.90
2018-05-09T02:52:02.875Z,5.17
2018-05-09T02:54:31.575Z,5.33
2018-05-09T02:56:59.455Z,5.47
2018-05-09T02:59:27.496Z,5.43
2018-05-09T03:01:55.456Z,5.07
2018-05-09T03:04:23.535Z,4.83
2018-05-09T03:06:51.334Z,4.87
2018-05-09T03:09:19.355Z,5.00
2018-05-09T03:11:47.416Z,5.77
2018-05-09T03:14:15.824Z,5.70
2018-05-09T03:16:43.773Z,6.10
2018-05-09T03:19:11.880Z,5.57
2018-05-09T03:21:40.476Z,5.37
2018-05-09T03:24:08.673Z,5.70
2018-05-09T03:26:36.414Z,5.23
2018-05-09T03:29:04.416Z,5.77
2018-05-09T03:31:32.253Z,5.57
2018-05-09T03:34:00.153Z,4.93
2018-05-09T03:36:28.033Z,5.20
2018-05-09T03:38:55.873Z,6.13
2018-05-09T03:41:23.733Z,5.40
2018-05-09T03:43:51.774Z,5.57
2018-05-09T03:46:20.278Z,5.37
2018-05-09T03:48:48.214Z,6.43
2018-05-09T03:51:16.454Z,6.23
2018-05-09T03:53:44.456Z,5.97
2018-05-09T03:56:12.314Z,5.53
2018-05-09T03:58:40.214Z,6.30
2018-05-09T04:01:08.108Z,5.47
2018-05-09T04:03:47.778Z,5.60
2018-05-09T04:06:27.619Z,5.33
2018-05-09T04:09:07.718Z,5.17
2018-05-09T04:11:36.598Z,5.47
2018-05-09T04:14:04.641Z,5.37
2018-05-09T04:16:33.298Z,5.03
2018-05-09T04:19:01.222Z,5.70
2018-05-09T04:21:29.138Z,5.90
2018-05-09T04:23:57.478Z,5.87
2018-05-09T04:26:25.299Z,5.60
2018-05-09T04:28:53.137Z,5.20
2018-05-09T04:31:20.956Z,5.00
2018-05-09T04:33:49.016Z,5.03
2018-05-09T04:36:17.017Z,4.57
2018-05-09T04:38:46.780Z,4.97
2018-05-09T04:41:14.557Z,4.97
2018-05-09T04:43:42.578Z,4.77
2018-05-09T04:46:10.557Z,4.83
2018-05-09T04:48:38.516Z,4.70
2018-05-09T04:51:06.437Z,4.73
2018-05-09T04:53:34.695Z,5.17
2018-05-09T04:56:02.575Z,5.20
2018-05-09T04:58:30.554Z,5.13
2018-05-09T05:00:58.454Z,5.20
2018-05-09T05:03:26.493Z,5.30
2018-05-09T05:05:54.454Z,5.13
2018-05-09T05:08:23.134Z,4.70
2018-05-09T05:10:51.074Z,5.17
2018-05-09T05:13:19.574Z,4.37
2018-05-09T05:15:48.030Z,5.17
2018-05-09T05:18:16.073Z,4.53
2018-05-09T05:20:46.094Z,4.70
2018-05-09T05:23:14.134Z,5.07
2018-05-09T05:25:42.295Z,4.47
2018-05-09T05:28:11.735Z,4.83
2018-05-09T05:30:39.595Z,4.97
2018-05-09T05:33:07.535Z,4.83
2018-05-09T05:35:35.599Z,4.27
2018-05-09T05:38:03.596Z,5.30
2018-05-09T05:40:31.239Z,5.10
2018-05-09T05:42:58.970Z,5.47
2018-05-09T05:45:26.806Z,5.53
2018-05-09T05:47:54.494Z,5.43
2018-05-09T05:50:22.217Z,6.10
2018-05-09T05:52:50.115Z,6.07
2018-05-09T05:55:18.375Z,5.80
2018-05-09T05:57:46.555Z,6.30
2018-05-09T06:00:14.269Z,5.97
2018-05-09T06:02:42.160Z,6.40
2018-05-09T06:05:09.915Z,6.80
2018-05-09T06:07:37.935Z,6.37
2018-05-09T06:10:05.675Z,6.57
2018-05-09T06:12:33.774Z,6.37
2018-05-09T06:15:01.792Z,6.60
2018-05-09T06:17:30.136Z,6.27
2018-05-09T06:19:58.076Z,6.60
2018-05-09T06:22:26.016Z,6.73
2018-05-09T06:24:53.856Z,6.47
2018-05-09T06:27:22.137Z,6.13
2018-05-09T06:29:49.979Z,6.07
2018-05-09T06:32:17.813Z,6.23
2018-05-09T06:34:45.834Z,6.20
2018-05-09T06:37:13.573Z,6.10
2018-05-09T06:39:41.459Z,6.23
2018-05-09T06:42:10.054Z,6.27
2018-05-09T06:44:37.986Z,6.20
2018-05-09T06:47:06.174Z,6.33
2018-05-09T06:49:34.243Z,5.90
2018-05-09T06:52:02.494Z,5.80
2018-05-09T06:54:30.354Z,5.50
2018-05-09T06:56:58.154Z,6.23
2018-05-09T06:59:26.617Z,5.70
2018-05-09T07:01:54.777Z,5.60
2018-05-09T07:04:23.416Z,5.20
2018-05-09T07:06:51.576Z,5.00
2018-05-09T07:09:19.556Z,5.67
2018-05-09T07:11:48.315Z,4.83
2018-05-09T07:14:16.156Z,4.83
2018-05-09T07:16:46.797Z,4.83
2018-05-09T07:19:15.077Z,4.97
2018-05-09T07:21:42.856Z,5.03
2018-05-09T07:24:10.696Z,5.13
2018-05-09T07:26:38.635Z,5.00
2018-05-09T07:29:06.656Z,5.07
2018-05-09T07:31:34.495Z,5.30
2018-05-09T07:34:02.355Z,4.67
2018-05-09T07:36:30.236Z,4.30
2018-05-09T07:38:58.335Z,4.97
2018-05-09T07:41:26.295Z,4.30
2018-05-09T07:43:54.420Z,4.70
2018-05-09T07:46:22.195Z,5.20
2018-05-09T07:48:50.096Z,4.80
2018-05-09T07:51:18.095Z,4.30
2018-05-09T07:53:45.956Z,4.73
2018-05-09T07:56:13.876Z,3.83
2018-05-09T07:58:41.635Z,3.73
2018-05-09T08:01:10.259Z,3.80
2018-05-09T08:03:38.322Z,3.90
2018-05-09T08:06:06.544Z,4.03
2018-05-09T08:08:34.621Z,4.00
2018-05-09T08:11:02.459Z,3.80
2018-05-09T08:13:30.734Z,4.13
2018-05-09T08:16:01.459Z,4.20
2018-05-09T08:18:29.474Z,4.10
2018-05-09T08:20:57.400Z,4.30
2018-05-09T08:23:25.254Z,3.97
2018-05-09T08:25:53.098Z,3.80
2018-05-09T08:28:21.654Z,4.00
2018-05-09T08:30:49.715Z,3.97
2018-05-09T08:33:17.574Z,3.90
2018-05-09T08:35:46.483Z,4.30
2018-05-09T08:38:14.634Z,3.83
2018-05-09T08:40:42.754Z,3.70
2018-05-09T08:43:10.657Z,3.97
2018-05-09T08:45:38.575Z,3.57
2018-05-09T08:48:06.614Z,3.80
2018-05-09T08:50:34.574Z,3.90
2018-05-09T08:53:02.615Z,3.60
2018-05-09T08:55:31.516Z,3.87
2018-05-09T09:02:54.955Z,3.60
2018-05-09T09:07:51.496Z,3.80
2018-05-09T09:10:19.316Z,3.70
2018-05-09T09:12:47.216Z,4.40
2018-05-09T09:15:15.112Z,4.53
2018-05-09T09:17:43.236Z,4.00
2018-05-09T09:20:13.276Z,3.93
2018-05-09T09:22:41.876Z,4.50
2018-05-09T09:25:09.797Z,4.33
2018-05-09T09:27:37.759Z,4.40
2018-05-09T09:30:05.653Z,4.20
2018-05-09T09:32:33.698Z,4.60
2018-05-09T09:35:01.432Z,4.90
2018-05-09T09:49:48.056Z,4.37
2018-05-09T09:52:16.015Z,4.57
2018-05-09T09:54:43.876Z,4.40
2018-05-09T09:57:11.896Z,4.50
2018-05-09T09:59:39.735Z,4.40
2018-05-09T10:02:07.756Z,4.70
2018-05-09T10:04:35.716Z,4.10
2018-05-09T10:07:03.896Z,4.00
2018-05-09T10:09:32.036Z,4.20
2018-05-09T10:12:00.816Z,4.50
2018-05-09T10:16:57.756Z,4.10
2018-05-09T10:19:25.995Z,4.20
2018-05-09T10:21:53.815Z,4.27
2018-05-09T10:24:21.776Z,3.70
2018-05-09T10:26:49.817Z,3.97
2018-05-09T10:29:17.656Z,4.13
2018-05-09T10:31:45.536Z,4.27
2018-05-09T10:34:14.676Z,4.00
2018-05-09T10:36:42.616Z,4.07
2018-05-09T10:39:10.579Z,4.07
2018-05-09T10:41:38.575Z,3.90
2018-05-09T10:44:06.457Z,4.20
2018-05-09T10:46:34.235Z,4.70
2018-05-09T10:49:02.396Z,4.13
2018-05-09T10:51:30.240Z,4.07
2018-05-09T10:53:58.036Z,4.80
2018-05-09T10:56:26.656Z,4.30
2018-05-09T10:58:54.536Z,4.40
2018-05-09T11:01:22.523Z,4.17
2018-05-09T11:06:22.519Z,4.77
2018-05-09T11:08:50.579Z,4.17
2018-05-09T11:11:19.378Z,3.97
2018-05-09T11:13:47.380Z,3.90
2018-05-09T11:16:15.319Z,4.00
2018-05-09T11:18:43.418Z,3.93
2018-05-09T11:21:12.219Z,4.00
2018-05-09T11:23:40.138Z,3.67
2018-05-09T11:26:08.539Z,3.70
2018-05-09T11:28:37.022Z,3.87
2018-05-09T11:31:04.938Z,3.30
2018-05-09T11:33:32.906Z,3.40
2018-05-09T11:36:00.837Z,3.30
2018-05-09T11:38:29.073Z,3.50
2018-05-09T11:40:57.078Z,3.80
2018-05-09T11:43:24.979Z,3.63
2018-05-09T11:45:52.939Z,3.57
2018-05-09T11:48:21.000Z,3.63
2018-05-09T11:50:49.009Z,3.90
2018-05-09T11:53:17.470Z,3.80
2018-05-09T11:55:45.513Z,4.43
2018-05-09T11:58:13.660Z,4.67
2018-05-09T12:05:36.872Z,3.93
2018-05-09T12:08:04.880Z,3.70
2018-05-09T12:10:32.866Z,3.87
2018-05-09T12:13:01.122Z,3.70
2018-05-09T12:15:29.181Z,3.70
2018-05-09T12:17:57.280Z,3.47
2018-05-09T12:20:26.103Z,3.77
2018-05-09T12:22:54.116Z,3.80
2018-05-09T12:25:22.016Z,3.67
2018-05-09T12:27:50.256Z,4.03
2018-05-09T12:30:18.556Z,3.53
2018-05-09T12:32:47.856Z,3.80
2018-05-09T12:35:15.736Z,3.57
2018-05-09T12:37:43.595Z,3.17
2018-05-09T12:40:11.416Z,3.60
2018-05-09T12:42:40.116Z,3.63
2018-05-09T12:45:08.398Z,3.60
2018-05-09T12:47:36.395Z,3.80
2018-05-09T12:50:04.299Z,3.63
2018-05-09T12:52:32.135Z,4.00
2018-05-09T12:55:00.176Z,3.13
2018-05-09T12:57:28.255Z,3.50
2018-05-09T12:59:56.816Z,3.80
2018-05-09T13:04:52.719Z,3.75
2018-05-09T13:07:20.719Z,3.73
2018-05-09T13:09:48.478Z,3.50
2018-05-09T13:12:16.299Z,3.50
2018-05-09T13:14:44.419Z,3.23
2018-05-09T13:17:12.418Z,3.47
2018-05-09T13:19:40.583Z,3.80
2018-05-09T13:22:08.539Z,3.47
2018-05-09T13:24:36.739Z,3.80
2018-05-09T13:27:07.039Z,3.53
2018-05-09T13:29:36.237Z,3.70
2018-05-09T13:32:04.358Z,3.70
2018-05-09T13:36:59.679Z,3.80
2018-05-09T13:39:27.619Z,3.90
2018-05-09T13:41:55.476Z,3.70
2018-05-09T13:44:23.438Z,3.40
2018-05-09T13:46:51.456Z,3.60
2018-05-09T13:49:20.216Z,3.83
2018-05-09T13:51:48.257Z,3.70
2018-05-09T13:54:16.197Z,3.17
2018-05-09T13:56:44.060Z,3.97
2018-05-09T13:59:11.976Z,3.50
2018-05-09T14:01:39.818Z,3.67
2018-05-09T14:04:09.479Z,3.70
2018-05-09T14:06:37.458Z,3.20
2018-05-09T14:09:05.535Z,3.50
2018-05-09T14:11:33.416Z,3.60
2018-05-09T14:21:24.817Z,3.80
2018-05-09T14:23:52.695Z,3.70
2018-05-09T14:26:20.636Z,3.83
2018-05-09T14:31:16.100Z,4.00
2018-05-09T14:33:44.176Z,3.90
2018-05-09T14:36:12.435Z,3.40
2018-05-09T14:38:40.515Z,3.30
2018-05-09T14:41:08.515Z,3.50
2018-05-09T14:43:36.515Z,3.25
2018-05-09T15:20:33.183Z,3.55
2018-05-09T15:50:05.376Z,3.40
2018-05-09T15:52:33.494Z,3.90
2018-05-09T15:55:01.436Z,3.50
2018-05-09T15:57:29.374Z,3.80
2018-05-09T15:59:57.654Z,3.90
2018-05-09T16:02:25.575Z,3.33
2018-05-09T16:04:53.615Z,3.20
2018-05-09T16:07:21.615Z,3.23
2018-05-09T16:09:49.516Z,3.50
2018-05-09T16:12:17.550Z,3.63
2018-05-09T16:17:17.740Z,3.87
2018-05-09T16:19:45.953Z,3.60
2018-05-09T16:22:13.831Z,3.70
2018-05-09T16:24:41.757Z,6.43
2018-05-09T16:27:09.696Z,4.40
2018-05-09T16:29:37.698Z,4.40
2018-05-09T16:32:05.676Z,4.20
2018-05-09T16:37:01.715Z,3.93
2018-05-09T16:39:29.816Z,4.05
2018-05-09T16:41:57.596Z,3.90
2018-05-09T16:44:25.816Z,4.10
2018-05-09T16:46:53.717Z,4.20
2018-05-09T16:49:21.777Z,4.40
2018-05-09T16:51:50.296Z,4.10
2018-05-09T16:54:18.455Z,4.10
2018-05-09T16:56:46.636Z,4.03
2018-05-09T16:59:16.440Z,3.93
2018-05-09T17:01:44.356Z,4.10
2018-05-09T17:04:13.336Z,4.30
2018-05-09T17:06:41.316Z,4.30
2018-05-09T17:09:09.296Z,4.57
2018-05-09T17:11:37.496Z,4.17
2018-05-09T17:14:06.816Z,4.00
2018-05-09T17:43:47.045Z,4.40
2018-05-09T17:46:14.964Z,4.30
2018-05-09T17:48:42.965Z,4.10
2018-05-09T17:51:11.665Z,4.37
2018-05-09T17:56:07.264Z,4.83
2018-05-09T17:58:35.582Z,4.13
2018-05-09T18:01:03.587Z,4.33
2018-05-09T18:03:31.487Z,4.00
2018-05-09T18:05:59.357Z,4.60
2018-05-09T18:08:28.832Z,3.70
2018-05-09T18:10:57.160Z,4.17
2018-05-09T18:13:24.983Z,4.37
2018-05-09T18:15:52.800Z,4.30
2018-05-09T18:18:20.528Z,4.37
2018-05-09T18:20:49.206Z,4.57
2018-05-09T18:23:16.923Z,4.80
2018-05-09T18:25:44.676Z,4.30
2018-05-09T18:28:12.698Z,4.47
2018-05-09T18:30:40.619Z,4.33
2018-05-09T18:33:08.306Z,4.73
2018-05-09T18:35:36.056Z,4.60
2018-05-09T18:38:03.769Z,4.87
2018-05-09T18:40:31.526Z,4.60
2018-05-09T18:42:59.517Z,4.70
2018-05-09T18:45:27.442Z,4.67
2018-05-09T18:47:55.189Z,5.07
2018-05-09T18:50:22.977Z,5.47
2018-05-09T18:52:50.658Z,6.90
2018-05-09T18:55:18.397Z,6.00
2018-05-09T18:57:46.082Z,4.50
2018-05-09T19:00:13.837Z,4.97
2018-05-09T19:02:41.601Z,5.00
2018-05-09T19:05:09.330Z,4.80
2018-05-09T19:07:37.158Z,5.33
2018-05-09T19:10:05.011Z,4.80
2018-05-09T19:12:32.738Z,5.23
2018-05-09T19:15:01.446Z,5.17
2018-05-09T19:17:29.140Z,5.03
2018-05-09T19:19:57.123Z,4.83
2018-05-09T19:22:24.937Z,5.63
2018-05-09T19:24:52.619Z,5.20
2018-05-09T19:27:20.443Z,5.97
2018-05-09T19:32:20.431Z,5.80
2018-05-09T19:34:48.218Z,5.78
2018-05-09T19:37:15.926Z,5.40
2018-05-09T19:39:43.658Z,5.07
2018-05-09T19:42:11.354Z,5.80
2018-05-09T19:44:39.396Z,5.63
2018-05-09T19:47:07.300Z,5.50
2018-05-09T19:49:35.252Z,5.67
2018-05-09T19:52:03.441Z,7.27
2018-05-09T19:54:36.004Z,6.90
2018-05-09T19:57:04.017Z,5.13
2018-05-09T19:59:31.938Z,6.07
2018-05-09T20:02:00.324Z,5.87
2018-05-09T20:04:28.218Z,6.33
2018-05-09T20:06:55.948Z,5.50
2018-05-09T20:09:23.858Z,5.63
2018-05-09T20:11:51.597Z,5.80
2018-05-09T20:14:19.352Z,6.00
2018-05-09T20:16:47.112Z,5.23
2018-05-09T20:19:14.999Z,5.90
2018-05-09T20:21:43.162Z,7.60
2018-05-09T20:24:10.879Z,5.40
2018-05-09T20:26:38.719Z,6.00
2018-05-09T20:29:06.936Z,5.70
2018-05-09T20:31:52.225Z,5.43
2018-05-09T20:34:20.156Z,5.60
2018-05-09T20:36:47.996Z,6.37
2018-05-09T20:39:15.957Z,6.07
2018-05-09T20:41:43.896Z,5.23
2018-05-09T20:44:11.997Z,6.30
2018-05-09T20:46:41.296Z,5.53
2018-05-09T20:49:09.195Z,5.80
2018-05-09T20:51:49.077Z,5.93
2018-05-09T20:54:16.857Z,5.40
2018-05-09T20:56:44.738Z,6.13
2018-05-09T20:59:12.551Z,5.80
2018-05-09T21:01:49.959Z,6.33
2018-05-09T21:04:18.735Z,6.03
2018-05-09T21:06:46.977Z,6.13
2018-05-09T21:09:15.165Z,5.47
2018-05-09T21:11:48.772Z,6.33
2018-05-09T21:14:16.857Z,6.23
2018-05-09T21:16:44.935Z,5.90
2018-05-09T21:19:12.864Z,6.20
2018-05-09T21:21:40.904Z,6.13
2018-05-09T21:24:08.706Z,5.60
2018-05-09T21:26:36.652Z,6.00
2018-05-09T21:29:05.423Z,5.53
2018-05-09T21:31:33.673Z,6.20
2018-05-09T21:34:01.784Z,6.33
2018-05-09T21:36:29.984Z,6.70
2018-05-09T21:38:58.084Z,5.90
2018-05-09T21:41:26.104Z,5.83
2018-05-09T21:43:54.144Z,5.60
2018-05-09T21:46:22.903Z,5.70
2018-05-09T21:48:50.846Z,6.50
2018-05-09T21:51:18.903Z,6.43
2018-05-09T21:53:46.823Z,6.50
2018-05-09T21:56:14.703Z,7.03
2018-05-09T21:58:42.683Z,6.37
2018-05-09T22:01:10.581Z,6.67
2018-05-09T22:03:38.838Z,6.77
2018-05-09T22:06:07.362Z,6.13
2018-05-09T22:08:36.482Z,6.60
2018-05-09T22:11:04.881Z,5.70
2018-05-09T22:13:32.981Z,6.47
2018-05-09T22:16:01.661Z,5.90
2018-05-09T22:18:29.446Z,6.40
2018-05-09T22:20:57.594Z,6.20
2018-05-09T22:23:25.458Z,6.20
2018-05-09T22:25:53.273Z,6.70
2018-05-09T22:28:21.215Z,6.47
2018-05-09T22:30:49.496Z,6.27
2018-05-09T22:33:17.534Z,6.27
2018-05-09T22:35:45.416Z,6.50
2018-05-09T22:38:13.092Z,6.13
2018-05-09T22:40:41.098Z,5.80
2018-05-09T22:43:09.655Z,5.90
2018-05-09T22:45:37.823Z,6.10
2018-05-09T22:48:05.855Z,6.43
2018-05-09T22:50:33.815Z,6.07
2018-05-09T22:53:01.804Z,6.33
2018-05-09T22:55:29.793Z,5.77
2018-05-09T22:57:58.154Z,6.30
2018-05-09T23:00:26.894Z,6.37
2018-05-09T23:02:54.813Z,6.87
2018-05-09T23:05:23.093Z,6.80
2018-05-09T23:07:50.934Z,6.27
2018-05-09T23:10:19.230Z,6.43
2018-05-09T23:12:47.462Z,5.83
2018-05-09T23:15:15.273Z,6.60
2018-05-09T23:17:43.133Z,6.43
2018-05-09T23:20:10.954Z,6.23
2018-05-09T23:22:38.913Z,5.73
2018-05-09T23:25:06.973Z,5.93
2018-05-09T23:27:34.874Z,6.20
2018-05-09T23:30:02.834Z,6.23
2018-05-09T23:32:30.614Z,5.87
2018-05-09T23:34:58.535Z,6.67
2018-05-09T23:37:27.573Z,5.93
2018-05-09T23:39:55.854Z,6.13
2018-05-09T23:42:23.753Z,5.77
2018-05-09T23:44:51.953Z,6.57
2018-05-09T23:47:19.814Z,7.03
2018-05-09T23:49:47.654Z,6.73
2018-05-09T23:52:15.707Z,6.77
2018-05-09T23:54:43.614Z,6.07
2018-05-09T23:57:11.573Z,6.13
2018-05-09T23:59:39.453Z,6.23
